sensor_id;sensor_type;location;lat;lon;timestamp;P1;durP1;ratioP1;P2;durP2;ratioP2
55067;SDS011;40965;52.368;9.712;2023-08-07T00:01:33;6.72;;;5.15;;
55067;SDS011;40965;52.368;9.712;2023-08-07T00:04:00;6.35;;;5.45;;
55067;SDS011;40965;52.368;9.712;2023-08-07T00:06:27;9.65;;;5.18;;
55067;SDS011;40965;52.368;9.712;2023-08-07T00:08:54;7.75;;;4.85;;
55067;SDS011;40965;52.368;9.712;2023-08-07T00:11:21;8.10;;;5.03;;
55067;SDS011;40965;52.368;9.712;2023-08-07T00:13:47;8.55;;;4.38;;
55067;SDS011;40965;52.368;9.712;2023-08-07T00:16:14;6.63;;;4.72;;
55067;SDS011;40965;52.368;9.712;2023-08-07T00:18:42;5.40;;;4.90;;
55067;SDS011;40965;52.368;9.712;2023-08-07T00:21:09;6.63;;;5.57;;
55067;SDS011;40965;52.368;9.712;2023-08-07T00:23:35;7.72;;;5.38;;
55067;SDS011;40965;52.368;9.712;2023-08-07T00:26:05;6.22;;;4.30;;
55067;SDS011;40965;52.368;9.712;2023-08-07T00:28:31;7.60;;;4.78;;
55067;SDS011;40965;52.368;9.712;2023-08-07T00:30:58;8.45;;;5.35;;
55067;SDS011;40965;52.368;9.712;2023-08-07T00:33:25;5.78;;;4.85;;
55067;SDS011;40965;52.368;9.712;2023-08-07T00:35:51;5.70;;;4.75;;
55067;SDS011;40965;52.368;9.712;2023-08-07T00:38:18;6.22;;;5.53;;
55067;SDS011;40965;52.368;9.712;2023-08-07T00:40:45;5.65;;;5.13;;
55067;SDS011;40965;52.368;9.712;2023-08-07T00:43:12;8.05;;;5.25;;
55067;SDS011;40965;52.368;9.712;2023-08-07T00:45:43;7.63;;;5.25;;
55067;SDS011;40965;52.368;9.712;2023-08-07T00:50:40;5.90;;;4.80;;
55067;SDS011;40965;52.368;9.712;2023-08-07T00:53:08;9.90;;;5.53;;
55067;SDS011;40965;52.368;9.712;2023-08-07T00:55:35;7.40;;;5.65;;
55067;SDS011;40965;52.368;9.712;2023-08-07T00:58:02;7.90;;;6.07;;
55067;SDS011;40965;52.368;9.712;2023-08-07T01:00:31;11.10;;;6.18;;
55067;SDS011;40965;52.368;9.712;2023-08-07T01:02:58;8.85;;;5.65;;
55067;SDS011;40965;52.368;9.712;2023-08-07T01:05:25;9.30;;;7.22;;
55067;SDS011;40965;52.368;9.712;2023-08-07T01:07:52;9.40;;;6.30;;
55067;SDS011;40965;52.368;9.712;2023-08-07T01:10:22;8.02;;;7.03;;
55067;SDS011;40965;52.368;9.712;2023-08-07T01:13:30;8.50;;;6.72;;
55067;SDS011;40965;52.368;9.712;2023-08-07T01:16:01;9.85;;;6.53;;
55067;SDS011;40965;52.368;9.712;2023-08-07T01:18:39;8.65;;;6.30;;
55067;SDS011;40965;52.368;9.712;2023-08-07T01:21:16;9.07;;;6.90;;
55067;SDS011;40965;52.368;9.712;2023-08-07T01:23:48;8.65;;;6.38;;
55067;SDS011;40965;52.368;9.712;2023-08-07T01:26:15;8.43;;;6.78;;
55067;SDS011;40965;52.368;9.712;2023-08-07T01:29:11;9.85;;;6.35;;
55067;SDS011;40965;52.368;9.712;2023-08-07T01:31:50;13.57;;;8.15;;
55067;SDS011;40965;52.368;9.712;2023-08-07T01:34:21;10.50;;;7.80;;
55067;SDS011;40965;52.368;9.712;2023-08-07T01:36:50;11.60;;;8.50;;
55067;SDS011;40965;52.368;9.712;2023-08-07T01:39:20;8.48;;;7.63;;
55067;SDS011;40965;52.368;9.712;2023-08-07T01:41:49;14.60;;;8.00;;
55067;SDS011;40965;52.368;9.712;2023-08-07T01:44:16;16.08;;;9.20;;
55067;SDS011;40965;52.368;9.712;2023-08-07T01:46:43;14.60;;;8.90;;
55067;SDS011;40965;52.368;9.712;2023-08-07T01:49:09;12.57;;;8.15;;
55067;SDS011;40965;52.368;9.712;2023-08-07T01:51:36;11.13;;;8.65;;
55067;SDS011;40965;52.368;9.712;2023-08-07T01:54:03;11.45;;;8.15;;
55067;SDS011;40965;52.368;9.712;2023-08-07T01:56:30;8.80;;;7.28;;
55067;SDS011;40965;52.368;9.712;2023-08-07T01:58:57;12.27;;;7.20;;
55067;SDS011;40965;52.368;9.712;2023-08-07T02:01:23;10.57;;;7.15;;
55067;SDS011;40965;52.368;9.712;2023-08-07T02:03:50;8.25;;;6.10;;
55067;SDS011;40965;52.368;9.712;2023-08-07T02:06:17;9.73;;;6.53;;
55067;SDS011;40965;52.368;9.712;2023-08-07T02:08:44;8.45;;;6.15;;
55067;SDS011;40965;52.368;9.712;2023-08-07T02:11:11;7.90;;;5.45;;
55067;SDS011;40965;52.368;9.712;2023-08-07T02:13:38;6.38;;;5.65;;
55067;SDS011;40965;52.368;9.712;2023-08-07T02:16:04;11.48;;;6.20;;
55067;SDS011;40965;52.368;9.712;2023-08-07T02:18:31;10.80;;;6.50;;
55067;SDS011;40965;52.368;9.712;2023-08-07T02:20:58;8.18;;;5.65;;
55067;SDS011;40965;52.368;9.712;2023-08-07T02:23:25;11.55;;;5.45;;
55067;SDS011;40965;52.368;9.712;2023-08-07T02:25:53;8.10;;;5.75;;
55067;SDS011;40965;52.368;9.712;2023-08-07T02:28:21;8.00;;;5.75;;
55067;SDS011;40965;52.368;9.712;2023-08-07T02:30:50;8.38;;;6.05;;
55067;SDS011;40965;52.368;9.712;2023-08-07T02:33:20;9.52;;;5.85;;
55067;SDS011;40965;52.368;9.712;2023-08-07T02:35:47;8.25;;;6.95;;
55067;SDS011;40965;52.368;9.712;2023-08-07T02:38:16;9.25;;;6.53;;
55067;SDS011;40965;52.368;9.712;2023-08-07T02:40:43;10.57;;;6.78;;
55067;SDS011;40965;52.368;9.712;2023-08-07T02:43:09;9.85;;;5.65;;
55067;SDS011;40965;52.368;9.712;2023-08-07T02:45:36;7.57;;;5.88;;
55067;SDS011;40965;52.368;9.712;2023-08-07T02:48:03;9.90;;;6.32;;
55067;SDS011;40965;52.368;9.712;2023-08-07T02:50:30;8.50;;;5.60;;
55067;SDS011;40965;52.368;9.712;2023-08-07T02:52:57;7.68;;;6.30;;
55067;SDS011;40965;52.368;9.712;2023-08-07T02:55:28;8.68;;;6.38;;
55067;SDS011;40965;52.368;9.712;2023-08-07T02:57:54;15.27;;;6.55;;
55067;SDS011;40965;52.368;9.712;2023-08-07T03:00:21;8.48;;;6.47;;
55067;SDS011;40965;52.368;9.712;2023-08-07T03:02:48;11.70;;;7.50;;
55067;SDS011;40965;52.368;9.712;2023-08-07T03:05:15;11.70;;;5.93;;
55067;SDS011;40965;52.368;9.712;2023-08-07T03:07:41;13.35;;;6.75;;
55067;SDS011;40965;52.368;9.712;2023-08-07T03:10:08;7.45;;;5.70;;
55067;SDS011;40965;52.368;9.712;2023-08-07T03:12:35;9.77;;;5.90;;
55067;SDS011;40965;52.368;9.712;2023-08-07T03:15:03;9.68;;;5.93;;
55067;SDS011;40965;52.368;9.712;2023-08-07T03:17:37;13.25;;;6.60;;
55067;SDS011;40965;52.368;9.712;2023-08-07T03:20:04;10.93;;;6.00;;
55067;SDS011;40965;52.368;9.712;2023-08-07T03:22:31;12.25;;;7.05;;
55067;SDS011;40965;52.368;9.712;2023-08-07T03:24:57;15.50;;;7.45;;
55067;SDS011;40965;52.368;9.712;2023-08-07T03:27:24;15.95;;;8.38;;
55067;SDS011;40965;52.368;9.712;2023-08-07T03:29:51;10.93;;;7.00;;
55067;SDS011;40965;52.368;9.712;2023-08-07T03:32:19;14.07;;;7.55;;
55067;SDS011;40965;52.368;9.712;2023-08-07T03:34:46;12.48;;;6.72;;
55067;SDS011;40965;52.368;9.712;2023-08-07T03:37:12;13.38;;;6.40;;
55067;SDS011;40965;52.368;9.712;2023-08-07T03:39:39;9.25;;;6.03;;
55067;SDS011;40965;52.368;9.712;2023-08-07T03:42:08;12.48;;;7.15;;
55067;SDS011;40965;52.368;9.712;2023-08-07T03:44:35;11.73;;;6.18;;
55067;SDS011;40965;52.368;9.712;2023-08-07T03:47:02;10.25;;;7.13;;
55067;SDS011;40965;52.368;9.712;2023-08-07T03:49:29;13.00;;;8.73;;
55067;SDS011;40965;52.368;9.712;2023-08-07T03:51:55;11.30;;;7.72;;
55067;SDS011;40965;52.368;9.712;2023-08-07T03:54:24;14.30;;;7.63;;
55067;SDS011;40965;52.368;9.712;2023-08-07T03:56:51;9.63;;;6.35;;
55067;SDS011;40965;52.368;9.712;2023-08-07T03:59:18;12.38;;;7.50;;
55067;SDS011;40965;52.368;9.712;2023-08-07T04:01:44;15.45;;;7.75;;
55067;SDS011;40965;52.368;9.712;2023-08-07T04:04:11;12.55;;;6.55;;
55067;SDS011;40965;52.368;9.712;2023-08-07T04:06:39;13.02;;;7.75;;
55067;SDS011;40965;52.368;9.712;2023-08-07T04:09:05;12.63;;;7.63;;
55067;SDS011;40965;52.368;9.712;2023-08-07T04:11:35;13.48;;;6.95;;
55067;SDS011;40965;52.368;9.712;2023-08-07T04:14:02;8.93;;;6.97;;
55067;SDS011;40965;52.368;9.712;2023-08-07T04:16:29;9.15;;;6.10;;
55067;SDS011;40965;52.368;9.712;2023-08-07T04:18:57;9.45;;;6.20;;
55067;SDS011;40965;52.368;9.712;2023-08-07T04:21:24;8.38;;;6.15;;
55067;SDS011;40965;52.368;9.712;2023-08-07T04:23:50;12.18;;;6.78;;
55067;SDS011;40965;52.368;9.712;2023-08-07T04:26:17;11.43;;;6.75;;
55067;SDS011;40965;52.368;9.712;2023-08-07T04:28:43;11.50;;;6.35;;
55067;SDS011;40965;52.368;9.712;2023-08-07T04:31:10;12.93;;;7.45;;
55067;SDS011;40965;52.368;9.712;2023-08-07T04:33:37;10.85;;;7.22;;
55067;SDS011;40965;52.368;9.712;2023-08-07T04:36:04;11.10;;;7.10;;
55067;SDS011;40965;52.368;9.712;2023-08-07T04:38:32;14.57;;;7.72;;
55067;SDS011;40965;52.368;9.712;2023-08-07T04:41:01;12.40;;;7.25;;
55067;SDS011;40965;52.368;9.712;2023-08-07T04:43:28;9.35;;;6.05;;
55067;SDS011;40965;52.368;9.712;2023-08-07T04:45:55;9.70;;;6.30;;
55067;SDS011;40965;52.368;9.712;2023-08-07T04:48:22;7.03;;;5.90;;
55067;SDS011;40965;52.368;9.712;2023-08-07T04:50:50;10.73;;;5.97;;
55067;SDS011;40965;52.368;9.712;2023-08-07T04:53:23;13.40;;;6.03;;
55067;SDS011;40965;52.368;9.712;2023-08-07T04:55:49;7.22;;;6.32;;
55067;SDS011;40965;52.368;9.712;2023-08-07T04:58:16;7.10;;;5.85;;
55067;SDS011;40965;52.368;9.712;2023-08-07T05:00:43;11.88;;;5.85;;
55067;SDS011;40965;52.368;9.712;2023-08-07T05:03:12;11.93;;;6.35;;
55067;SDS011;40965;52.368;9.712;2023-08-07T05:05:40;7.22;;;6.25;;
55067;SDS011;40965;52.368;9.712;2023-08-07T05:08:07;6.70;;;5.57;;
55067;SDS011;40965;52.368;9.712;2023-08-07T05:10:34;11.00;;;6.65;;
55067;SDS011;40965;52.368;9.712;2023-08-07T05:13:00;7.30;;;5.80;;
55067;SDS011;40965;52.368;9.712;2023-08-07T05:15:28;7.88;;;6.15;;
55067;SDS011;40965;52.368;9.712;2023-08-07T05:17:57;12.13;;;6.45;;
55067;SDS011;40965;52.368;9.712;2023-08-07T05:20:24;12.90;;;6.93;;
55067;SDS011;40965;52.368;9.712;2023-08-07T05:22:51;9.18;;;5.50;;
55067;SDS011;40965;52.368;9.712;2023-08-07T05:25:18;19.58;;;6.18;;
55067;SDS011;40965;52.368;9.712;2023-08-07T05:27:46;10.63;;;5.13;;
55067;SDS011;40965;52.368;9.712;2023-08-07T05:30:15;11.43;;;5.68;;
55067;SDS011;40965;52.368;9.712;2023-08-07T05:32:42;5.25;;;4.72;;
55067;SDS011;40965;52.368;9.712;2023-08-07T05:35:11;7.35;;;4.75;;
55067;SDS011;40965;52.368;9.712;2023-08-07T05:37:38;7.15;;;4.40;;
55067;SDS011;40965;52.368;9.712;2023-08-07T05:40:06;9.85;;;4.97;;
55067;SDS011;40965;52.368;9.712;2023-08-07T05:42:37;6.50;;;4.30;;
55067;SDS011;40965;52.368;9.712;2023-08-07T05:45:04;6.45;;;4.57;;
55067;SDS011;40965;52.368;9.712;2023-08-07T05:47:31;6.10;;;4.35;;
55067;SDS011;40965;52.368;9.712;2023-08-07T05:49:59;7.93;;;4.80;;
55067;SDS011;40965;52.368;9.712;2023-08-07T05:52:26;6.13;;;4.57;;
55067;SDS011;40965;52.368;9.712;2023-08-07T05:54:54;8.88;;;4.15;;
55067;SDS011;40965;52.368;9.712;2023-08-07T05:57:21;9.82;;;2.97;;
55067;SDS011;40965;52.368;9.712;2023-08-07T05:59:47;7.93;;;3.50;;
55067;SDS011;40965;52.368;9.712;2023-08-07T06:02:14;5.50;;;3.15;;
55067;SDS011;40965;52.368;9.712;2023-08-07T06:04:41;4.97;;;2.97;;
55067;SDS011;40965;52.368;9.712;2023-08-07T06:07:08;4.85;;;3.40;;
55067;SDS011;40965;52.368;9.712;2023-08-07T06:09:35;6.68;;;3.72;;
55067;SDS011;40965;52.368;9.712;2023-08-07T06:12:02;3.30;;;3.00;;
55067;SDS011;40965;52.368;9.712;2023-08-07T06:14:29;4.50;;;3.05;;
55067;SDS011;40965;52.368;9.712;2023-08-07T06:17:02;7.00;;;2.75;;
55067;SDS011;40965;52.368;9.712;2023-08-07T06:19:29;11.38;;;3.45;;
55067;SDS011;40965;52.368;9.712;2023-08-07T06:21:59;4.63;;;2.78;;
55067;SDS011;40965;52.368;9.712;2023-08-07T06:24:26;4.88;;;2.40;;
55067;SDS011;40965;52.368;9.712;2023-08-07T06:26:53;4.78;;;3.15;;
55067;SDS011;40965;52.368;9.712;2023-08-07T06:29:20;9.15;;;3.72;;
55067;SDS011;40965;52.368;9.712;2023-08-07T06:31:50;12.43;;;4.38;;
55067;SDS011;40965;52.368;9.712;2023-08-07T06:34:17;6.32;;;3.22;;
55067;SDS011;40965;52.368;9.712;2023-08-07T06:36:44;3.78;;;2.70;;
55067;SDS011;40965;52.368;9.712;2023-08-07T06:39:10;4.88;;;2.70;;
55067;SDS011;40965;52.368;9.712;2023-08-07T06:41:37;5.22;;;3.13;;
55067;SDS011;40965;52.368;9.712;2023-08-07T06:44:04;4.05;;;2.63;;
55067;SDS011;40965;52.368;9.712;2023-08-07T06:46:34;5.18;;;3.20;;
55067;SDS011;40965;52.368;9.712;2023-08-07T06:49:01;7.97;;;2.53;;
55067;SDS011;40965;52.368;9.712;2023-08-07T06:51:27;3.22;;;2.30;;
55067;SDS011;40965;52.368;9.712;2023-08-07T06:53:55;5.20;;;2.25;;
55067;SDS011;40965;52.368;9.712;2023-08-07T06:56:22;3.08;;;1.92;;
55067;SDS011;40965;52.368;9.712;2023-08-07T06:58:49;2.63;;;2.20;;
55067;SDS011;40965;52.368;9.712;2023-08-07T07:01:18;4.38;;;2.25;;
55067;SDS011;40965;52.368;9.712;2023-08-07T07:03:45;2.13;;;1.95;;
55067;SDS011;40965;52.368;9.712;2023-08-07T07:06:12;4.53;;;2.40;;
55067;SDS011;40965;52.368;9.712;2023-08-07T07:08:39;5.15;;;2.42;;
55067;SDS011;40965;52.368;9.712;2023-08-07T07:11:06;2.63;;;2.17;;
55067;SDS011;40965;52.368;9.712;2023-08-07T07:13:34;2.13;;;1.95;;
55067;SDS011;40965;52.368;9.712;2023-08-07T07:16:01;2.60;;;2.35;;
55067;SDS011;40965;52.368;9.712;2023-08-07T07:18:28;7.07;;;2.75;;
55067;SDS011;40965;52.368;9.712;2023-08-07T07:21:01;5.55;;;1.83;;
55067;SDS011;40965;52.368;9.712;2023-08-07T07:23:31;5.75;;;2.50;;
55067;SDS011;40965;52.368;9.712;2023-08-07T07:25:57;3.58;;;1.95;;
55067;SDS011;40965;52.368;9.712;2023-08-07T07:28:24;4.78;;;2.25;;
55067;SDS011;40965;52.368;9.712;2023-08-07T07:30:51;3.03;;;2.13;;
55067;SDS011;40965;52.368;9.712;2023-08-07T07:33:18;4.70;;;2.20;;
55067;SDS011;40965;52.368;9.712;2023-08-07T07:35:46;2.65;;;1.73;;
55067;SDS011;40965;52.368;9.712;2023-08-07T07:38:13;2.70;;;1.95;;
55067;SDS011;40965;52.368;9.712;2023-08-07T07:40:41;5.47;;;2.13;;
55067;SDS011;40965;52.368;9.712;2023-08-07T07:43:08;10.95;;;2.95;;
55067;SDS011;40965;52.368;9.712;2023-08-07T07:45:41;7.28;;;3.28;;
55067;SDS011;40965;52.368;9.712;2023-08-07T07:48:08;6.18;;;2.00;;
55067;SDS011;40965;52.368;9.712;2023-08-07T07:50:40;5.38;;;2.03;;
55067;SDS011;40965;52.368;9.712;2023-08-07T07:53:10;3.85;;;2.33;;
55067;SDS011;40965;52.368;9.712;2023-08-07T07:55:46;3.30;;;1.88;;
55067;SDS011;40965;52.368;9.712;2023-08-07T08:00:45;4.25;;;2.13;;
55067;SDS011;40965;52.368;9.712;2023-08-07T08:03:14;2.88;;;2.17;;
55067;SDS011;40965;52.368;9.712;2023-08-07T08:05:41;3.25;;;2.47;;
55067;SDS011;40965;52.368;9.712;2023-08-07T08:08:08;3.95;;;1.85;;
55067;SDS011;40965;52.368;9.712;2023-08-07T08:10:37;4.05;;;1.55;;
55067;SDS011;40965;52.368;9.712;2023-08-07T08:13:09;3.75;;;1.70;;
55067;SDS011;40965;52.368;9.712;2023-08-07T08:15:37;5.10;;;2.05;;
55067;SDS011;40965;52.368;9.712;2023-08-07T08:18:03;6.18;;;2.30;;
55067;SDS011;40965;52.368;9.712;2023-08-07T08:20:34;3.85;;;2.00;;
55067;SDS011;40965;52.368;9.712;2023-08-07T08:23:02;4.13;;;1.48;;
55067;SDS011;40965;52.368;9.712;2023-08-07T08:25:32;3.03;;;1.35;;
55067;SDS011;40965;52.368;9.712;2023-08-07T08:27:59;5.72;;;1.75;;
55067;SDS011;40965;52.368;9.712;2023-08-07T08:30:29;3.10;;;1.00;;
55067;SDS011;40965;52.368;9.712;2023-08-07T08:32:58;1.52;;;1.40;;
55067;SDS011;40965;52.368;9.712;2023-08-07T08:35:25;2.38;;;2.03;;
55067;SDS011;40965;52.368;9.712;2023-08-07T08:37:52;9.35;;;2.53;;
55067;SDS011;40965;52.368;9.712;2023-08-07T08:40:21;2.95;;;1.35;;
55067;SDS011;40965;52.368;9.712;2023-08-07T08:42:50;3.70;;;1.85;;
55067;SDS011;40965;52.368;9.712;2023-08-07T08:45:18;4.35;;;2.05;;
55067;SDS011;40965;52.368;9.712;2023-08-07T08:47:48;3.17;;;1.90;;
55067;SDS011;40965;52.368;9.712;2023-08-07T08:50:21;4.85;;;2.05;;
55067;SDS011;40965;52.368;9.712;2023-08-07T08:52:48;7.78;;;2.97;;
55067;SDS011;40965;52.368;9.712;2023-08-07T08:55:23;4.13;;;1.95;;
55067;SDS011;40965;52.368;9.712;2023-08-07T08:57:51;3.70;;;1.10;;
55067;SDS011;40965;52.368;9.712;2023-08-07T09:00:19;4.15;;;2.40;;
55067;SDS011;40965;52.368;9.712;2023-08-07T09:02:47;6.68;;;2.17;;
55067;SDS011;40965;52.368;9.712;2023-08-07T09:05:19;8.27;;;2.92;;
55067;SDS011;40965;52.368;9.712;2023-08-07T09:07:48;3.83;;;1.73;;
55067;SDS011;40965;52.368;9.712;2023-08-07T09:10:18;6.50;;;2.00;;
55067;SDS011;40965;52.368;9.712;2023-08-07T09:13:01;9.20;;;1.98;;
55067;SDS011;40965;52.368;9.712;2023-08-07T09:15:35;3.03;;;2.38;;
55067;SDS011;40965;52.368;9.712;2023-08-07T09:18:06;5.68;;;1.90;;
55067;SDS011;40965;52.368;9.712;2023-08-07T09:20:35;5.40;;;1.85;;
55067;SDS011;40965;52.368;9.712;2023-08-07T09:23:04;5.00;;;1.15;;
55067;SDS011;40965;52.368;9.712;2023-08-07T09:25:32;4.13;;;1.15;;
55067;SDS011;40965;52.368;9.712;2023-08-07T09:28:03;4.65;;;1.63;;
55067;SDS011;40965;52.368;9.712;2023-08-07T09:30:40;7.57;;;2.47;;
55067;SDS011;40965;52.368;9.712;2023-08-07T09:33:09;10.57;;;2.80;;
55067;SDS011;40965;52.368;9.712;2023-08-07T09:35:36;5.40;;;2.72;;
55067;SDS011;40965;52.368;9.712;2023-08-07T09:38:06;4.05;;;1.92;;
55067;SDS011;40965;52.368;9.712;2023-08-07T09:40:33;7.07;;;2.47;;
55067;SDS011;40965;52.368;9.712;2023-08-07T09:43:00;10.68;;;2.25;;
55067;SDS011;40965;52.368;9.712;2023-08-07T09:45:33;3.53;;;1.88;;
55067;SDS011;40965;52.368;9.712;2023-08-07T09:48:06;6.35;;;2.88;;
55067;SDS011;40965;52.368;9.712;2023-08-07T09:50:38;3.08;;;1.40;;
55067;SDS011;40965;52.368;9.712;2023-08-07T09:53:08;9.75;;;3.08;;
55067;SDS011;40965;52.368;9.712;2023-08-07T09:55:39;7.65;;;3.95;;
55067;SDS011;40965;52.368;9.712;2023-08-07T09:58:13;7.88;;;3.58;;
55067;SDS011;40965;52.368;9.712;2023-08-07T10:00:40;7.30;;;2.00;;
55067;SDS011;40965;52.368;9.712;2023-08-07T10:03:08;2.10;;;1.15;;
55067;SDS011;40965;52.368;9.712;2023-08-07T10:05:37;3.22;;;1.33;;
55067;SDS011;40965;52.368;9.712;2023-08-07T10:08:06;1.98;;;1.13;;
55067;SDS011;40965;52.368;9.712;2023-08-07T10:10:33;4.30;;;1.58;;
55067;SDS011;40965;52.368;9.712;2023-08-07T10:13:00;14.02;;;5.43;;
55067;SDS011;40965;52.368;9.712;2023-08-07T10:15:35;5.70;;;4.10;;
55067;SDS011;40965;52.368;9.712;2023-08-07T10:18:02;9.55;;;3.83;;
55067;SDS011;40965;52.368;9.712;2023-08-07T10:20:31;5.00;;;3.00;;
55067;SDS011;40965;52.368;9.712;2023-08-07T10:23:03;4.38;;;2.50;;
55067;SDS011;40965;52.368;9.712;2023-08-07T10:25:38;4.38;;;1.17;;
55067;SDS011;40965;52.368;9.712;2023-08-07T10:28:14;5.32;;;1.50;;
55067;SDS011;40965;52.368;9.712;2023-08-07T10:30:57;3.95;;;1.17;;
55067;SDS011;40965;52.368;9.712;2023-08-07T10:33:26;4.50;;;2.42;;
55067;SDS011;40965;52.368;9.712;2023-08-07T10:36:07;3.22;;;1.98;;
55067;SDS011;40965;52.368;9.712;2023-08-07T10:38:37;3.95;;;1.23;;
55067;SDS011;40965;52.368;9.712;2023-08-07T10:41:08;2.90;;;1.23;;
55067;SDS011;40965;52.368;9.712;2023-08-07T10:43:43;2.78;;;1.00;;
55067;SDS011;40965;52.368;9.712;2023-08-07T10:46:20;3.40;;;1.02;;
55067;SDS011;40965;52.368;9.712;2023-08-07T10:48:56;6.68;;;2.58;;
55067;SDS011;40965;52.368;9.712;2023-08-07T10:51:29;5.43;;;2.38;;
55067;SDS011;40965;52.368;9.712;2023-08-07T10:53:57;3.40;;;2.35;;
55067;SDS011;40965;52.368;9.712;2023-08-07T10:56:33;8.80;;;4.57;;
55067;SDS011;40965;52.368;9.712;2023-08-07T10:59:12;8.77;;;4.35;;
55067;SDS011;40965;52.368;9.712;2023-08-07T11:01:50;5.55;;;2.42;;
55067;SDS011;40965;52.368;9.712;2023-08-07T11:04:27;8.88;;;2.78;;
55067;SDS011;40965;52.368;9.712;2023-08-07T11:06:55;6.95;;;2.88;;
55067;SDS011;40965;52.368;9.712;2023-08-07T11:09:24;2.75;;;1.70;;
55067;SDS011;40965;52.368;9.712;2023-08-07T11:11:51;5.25;;;2.08;;
55067;SDS011;40965;52.368;9.712;2023-08-07T11:14:28;3.30;;;1.65;;
55067;SDS011;40965;52.368;9.712;2023-08-07T11:16:55;3.13;;;1.30;;
55067;SDS011;40965;52.368;9.712;2023-08-07T11:19:24;4.03;;;1.20;;
55067;SDS011;40965;52.368;9.712;2023-08-07T11:21:51;4.32;;;1.15;;
55067;SDS011;40965;52.368;9.712;2023-08-07T11:24:22;3.45;;;1.45;;
55067;SDS011;40965;52.368;9.712;2023-08-07T11:26:53;3.33;;;1.80;;
55067;SDS011;40965;52.368;9.712;2023-08-07T11:29:26;4.50;;;1.20;;
55067;SDS011;40965;52.368;9.712;2023-08-07T11:31:53;6.80;;;1.13;;
55067;SDS011;40965;52.368;9.712;2023-08-07T11:34:22;9.55;;;1.67;;
55067;SDS011;40965;52.368;9.712;2023-08-07T11:36:50;8.50;;;1.38;;
55067;SDS011;40965;52.368;9.712;2023-08-07T11:39:20;4.85;;;1.17;;
55067;SDS011;40965;52.368;9.712;2023-08-07T11:41:53;4.65;;;1.10;;
55067;SDS011;40965;52.368;9.712;2023-08-07T11:44:20;2.22;;;0.77;;
55067;SDS011;40965;52.368;9.712;2023-08-07T11:46:47;2.08;;;0.90;;
55067;SDS011;40965;52.368;9.712;2023-08-07T11:49:16;2.30;;;1.10;;
55067;SDS011;40965;52.368;9.712;2023-08-07T11:51:46;2.67;;;1.77;;
55067;SDS011;40965;52.368;9.712;2023-08-07T11:54:17;1.75;;;0.85;;
55067;SDS011;40965;52.368;9.712;2023-08-07T11:56:48;3.33;;;1.33;;
55067;SDS011;40965;52.368;9.712;2023-08-07T11:59:18;4.82;;;1.48;;
55067;SDS011;40965;52.368;9.712;2023-08-07T12:01:48;5.43;;;1.20;;
55067;SDS011;40965;52.368;9.712;2023-08-07T12:04:19;3.88;;;1.38;;
55067;SDS011;40965;52.368;9.712;2023-08-07T12:06:55;9.85;;;1.58;;
55067;SDS011;40965;52.368;9.712;2023-08-07T12:09:25;4.18;;;1.35;;
55067;SDS011;40965;52.368;9.712;2023-08-07T12:11:55;5.18;;;1.17;;
55067;SDS011;40965;52.368;9.712;2023-08-07T12:14:29;6.07;;;1.30;;
55067;SDS011;40965;52.368;9.712;2023-08-07T12:16:56;3.17;;;1.08;;
55067;SDS011;40965;52.368;9.712;2023-08-07T12:19:23;4.03;;;1.02;;
55067;SDS011;40965;52.368;9.712;2023-08-07T12:21:52;2.90;;;0.82;;
55067;SDS011;40965;52.368;9.712;2023-08-07T12:24:21;5.82;;;2.03;;
55067;SDS011;40965;52.368;9.712;2023-08-07T12:26:52;2.28;;;1.10;;
55067;SDS011;40965;52.368;9.712;2023-08-07T12:29:18;3.85;;;1.30;;
55067;SDS011;40965;52.368;9.712;2023-08-07T12:31:45;3.75;;;1.25;;
55067;SDS011;40965;52.368;9.712;2023-08-07T12:34:15;4.00;;;1.27;;
55067;SDS011;40965;52.368;9.712;2023-08-07T12:36:42;3.72;;;1.17;;
55067;SDS011;40965;52.368;9.712;2023-08-07T12:39:09;4.03;;;1.88;;
55067;SDS011;40965;52.368;9.712;2023-08-07T12:41:37;4.70;;;1.13;;
55067;SDS011;40965;52.368;9.712;2023-08-07T12:44:04;3.35;;;1.15;;
55067;SDS011;40965;52.368;9.712;2023-08-07T12:46:33;7.35;;;1.35;;
55067;SDS011;40965;52.368;9.712;2023-08-07T12:49:01;7.68;;;1.70;;
55067;SDS011;40965;52.368;9.712;2023-08-07T12:51:32;4.05;;;1.30;;
55067;SDS011;40965;52.368;9.712;2023-08-07T12:53:58;2.17;;;1.10;;
55067;SDS011;40965;52.368;9.712;2023-08-07T12:56:25;6.43;;;2.47;;
55067;SDS011;40965;52.368;9.712;2023-08-07T12:58:52;9.32;;;2.30;;
55067;SDS011;40965;52.368;9.712;2023-08-07T13:01:19;4.18;;;1.67;;
55067;SDS011;40965;52.368;9.712;2023-08-07T13:03:45;4.88;;;1.90;;
55067;SDS011;40965;52.368;9.712;2023-08-07T13:06:12;5.95;;;1.95;;
55067;SDS011;40965;52.368;9.712;2023-08-07T13:08:45;6.97;;;2.25;;
55067;SDS011;40965;52.368;9.712;2023-08-07T13:11:12;3.88;;;1.75;;
55067;SDS011;40965;52.368;9.712;2023-08-07T13:13:38;4.40;;;1.30;;
55067;SDS011;40965;52.368;9.712;2023-08-07T13:16:05;3.03;;;1.58;;
55067;SDS011;40965;52.368;9.712;2023-08-07T13:18:37;3.50;;;1.35;;
55067;SDS011;40965;52.368;9.712;2023-08-07T13:21:03;8.02;;;1.73;;
55067;SDS011;40965;52.368;9.712;2023-08-07T13:23:33;3.90;;;1.63;;
55067;SDS011;40965;52.368;9.712;2023-08-07T13:26:00;8.00;;;1.88;;
55067;SDS011;40965;52.368;9.712;2023-08-07T13:28:30;4.95;;;2.20;;
55067;SDS011;40965;52.368;9.712;2023-08-07T13:31:04;9.88;;;4.18;;
55067;SDS011;40965;52.368;9.712;2023-08-07T13:33:34;6.72;;;2.85;;
55067;SDS011;40965;52.368;9.712;2023-08-07T13:36:01;3.03;;;1.50;;
55067;SDS011;40965;52.368;9.712;2023-08-07T13:38:28;6.82;;;2.03;;
55067;SDS011;40965;52.368;9.712;2023-08-07T13:40:55;3.20;;;1.63;;
55067;SDS011;40965;52.368;9.712;2023-08-07T13:43:24;5.80;;;1.33;;
55067;SDS011;40965;52.368;9.712;2023-08-07T13:45:51;9.65;;;2.15;;
55067;SDS011;40965;52.368;9.712;2023-08-07T13:48:21;5.55;;;1.58;;
55067;SDS011;40965;52.368;9.712;2023-08-07T13:50:51;3.35;;;1.30;;
55067;SDS011;40965;52.368;9.712;2023-08-07T13:53:18;5.40;;;2.00;;
55067;SDS011;40965;52.368;9.712;2023-08-07T13:55:44;6.07;;;1.20;;
55067;SDS011;40965;52.368;9.712;2023-08-07T13:58:12;3.33;;;1.58;;
55067;SDS011;40965;52.368;9.712;2023-08-07T14:00:41;8.25;;;2.80;;
55067;SDS011;40965;52.368;9.712;2023-08-07T14:03:13;3.03;;;1.70;;
55067;SDS011;40965;52.368;9.712;2023-08-07T14:05:40;7.05;;;1.45;;
55067;SDS011;40965;52.368;9.712;2023-08-07T14:08:06;4.85;;;1.88;;
55067;SDS011;40965;52.368;9.712;2023-08-07T14:10:35;4.78;;;1.13;;
55067;SDS011;40965;52.368;9.712;2023-08-07T14:13:04;7.95;;;1.88;;
55067;SDS011;40965;52.368;9.712;2023-08-07T14:15:31;6.18;;;1.30;;
55067;SDS011;40965;52.368;9.712;2023-08-07T14:17:58;10.68;;;1.40;;
55067;SDS011;40965;52.368;9.712;2023-08-07T14:20:25;5.18;;;1.38;;
55067;SDS011;40965;52.368;9.712;2023-08-07T14:22:51;5.50;;;1.40;;
55067;SDS011;40965;52.368;9.712;2023-08-07T14:25:18;5.03;;;1.50;;
55067;SDS011;40965;52.368;9.712;2023-08-07T14:27:47;4.82;;;1.92;;
55067;SDS011;40965;52.368;9.712;2023-08-07T14:30:15;2.80;;;1.55;;
55067;SDS011;40965;52.368;9.712;2023-08-07T14:32:49;8.07;;;3.08;;
55067;SDS011;40965;52.368;9.712;2023-08-07T14:35:19;5.85;;;2.47;;
55067;SDS011;40965;52.368;9.712;2023-08-07T14:37:45;7.07;;;3.33;;
55067;SDS011;40965;52.368;9.712;2023-08-07T14:40:13;2.60;;;1.60;;
55067;SDS011;40965;52.368;9.712;2023-08-07T14:42:40;3.97;;;1.55;;
55067;SDS011;40965;52.368;9.712;2023-08-07T14:45:07;4.70;;;1.65;;
55067;SDS011;40965;52.368;9.712;2023-08-07T14:47:35;4.88;;;1.75;;
55067;SDS011;40965;52.368;9.712;2023-08-07T14:50:04;3.65;;;1.48;;
55067;SDS011;40965;52.368;9.712;2023-08-07T14:52:31;4.57;;;1.98;;
55067;SDS011;40965;52.368;9.712;2023-08-07T14:54:57;8.35;;;1.38;;
55067;SDS011;40965;52.368;9.712;2023-08-07T14:57:24;3.90;;;1.10;;
55067;SDS011;40965;52.368;9.712;2023-08-07T14:59:51;3.33;;;1.10;;